sensor_id;sensor_type;location;lat;lon;timestamp;P1;durP1;ratioP1;P2;durP2;ratioP2
417;SDS011;49;48.530;9.200;2023-10-13T00:00:37;9.80;;;5.27;;
417;SDS011;49;48.530;9.200;2023-10-13T00:03:09;13.70;;;4.80;;
417;SDS011;49;48.530;9.200;2023-10-13T00:05:57;8.20;;;4.33;;
417;SDS011;49;48.530;9.200;2023-10-13T00:08:35;13.07;;;5.53;;
417;SDS011;49;48.530;9.200;2023-10-13T00:11:03;7.50;;;3.80;;
417;SDS011;49;48.530;9.200;2023-10-13T00:13:34;13.93;;;5.03;;
417;SDS011;49;48.530;9.200;2023-10-13T00:16:16;16.03;;;4.87;;
417;SDS011;49;48.530;9.200;2023-10-13T00:18:46;14.47;;;4.73;;
417;SDS011;49;48.530;9.200;2023-10-13T00:21:15;11.00;;;5.30;;
417;SDS011;49;48.530;9.200;2023-10-13T00:24:00;13.03;;;5.10;;
417;SDS011;49;48.530;9.200;2023-10-13T00:26:37;9.80;;;4.60;;
417;SDS011;49;48.530;9.200;2023-10-13T00:29:13;15.80;;;4.33;;
417;SDS011;49;48.530;9.200;2023-10-13T00:32:02;10.53;;;4.40;;
417;SDS011;49;48.530;9.200;2023-10-13T00:34:37;11.40;;;5.80;;
417;SDS011;49;48.530;9.200;2023-10-13T00:37:07;30.03;;;5.00;;
417;SDS011;49;48.530;9.200;2023-10-13T00:39:44;16.73;;;5.43;;
417;SDS011;49;48.530;9.200;2023-10-13T00:42:21;8.53;;;4.60;;
417;SDS011;49;48.530;9.200;2023-10-13T00:44:58;7.90;;;4.47;;
417;SDS011;49;48.530;9.200;2023-10-13T00:47:29;7.97;;;4.07;;
417;SDS011;49;48.530;9.200;2023-10-13T00:50:22;12.27;;;4.50;;
417;SDS011;49;48.530;9.200;2023-10-13T00:52:58;8.63;;;4.97;;
417;SDS011;49;48.530;9.200;2023-10-13T00:55:29;13.17;;;4.90;;
417;SDS011;49;48.530;9.200;2023-10-13T00:58:09;12.40;;;5.37;;
417;SDS011;49;48.530;9.200;2023-10-13T01:00:47;8.83;;;5.10;;
417;SDS011;49;48.530;9.200;2023-10-13T01:03:22;8.40;;;5.07;;
417;SDS011;49;48.530;9.200;2023-10-13T01:05:52;13.07;;;5.13;;
417;SDS011;49;48.530;9.200;2023-10-13T01:08:32;11.30;;;5.30;;
417;SDS011;49;48.530;9.200;2023-10-13T01:11:07;14.03;;;5.40;;
417;SDS011;49;48.530;9.200;2023-10-13T01:13:33;11.63;;;4.53;;
417;SDS011;49;48.530;9.200;2023-10-13T01:16:06;14.57;;;5.37;;
417;SDS011;49;48.530;9.200;2023-10-13T01:18:36;9.27;;;4.63;;
417;SDS011;49;48.530;9.200;2023-10-13T01:21:14;10.20;;;4.60;;
417;SDS011;49;48.530;9.200;2023-10-13T01:23:46;11.60;;;4.50;;
417;SDS011;49;48.530;9.200;2023-10-13T01:26:19;10.30;;;5.20;;
417;SDS011;49;48.530;9.200;2023-10-13T01:28:49;11.57;;;4.97;;
417;SDS011;49;48.530;9.200;2023-10-13T01:31:21;8.43;;;4.93;;
417;SDS011;49;48.530;9.200;2023-10-13T01:33:56;10.23;;;4.43;;
417;SDS011;49;48.530;9.200;2023-10-13T01:36:26;11.70;;;5.20;;
417;SDS011;49;48.530;9.200;2023-10-13T01:39:03;6.07;;;4.00;;
417;SDS011;49;48.530;9.200;2023-10-13T01:41:33;16.70;;;5.10;;
417;SDS011;49;48.530;9.200;2023-10-13T01:44:02;9.57;;;3.90;;
417;SDS011;49;48.530;9.200;2023-10-13T01:46:39;8.53;;;4.70;;
417;SDS011;49;48.530;9.200;2023-10-13T01:49:09;10.73;;;5.20;;
417;SDS011;49;48.530;9.200;2023-10-13T01:51:43;21.07;;;5.63;;
417;SDS011;49;48.530;9.200;2023-10-13T01:54:16;10.87;;;4.30;;
417;SDS011;49;48.530;9.200;2023-10-13T01:56:46;10.23;;;4.80;;
417;SDS011;49;48.530;9.200;2023-10-13T01:59:21;15.50;;;4.80;;
417;SDS011;49;48.530;9.200;2023-10-13T02:01:48;9.63;;;5.23;;
417;SDS011;49;48.530;9.200;2023-10-13T02:04:27;10.00;;;4.77;;
417;SDS011;49;48.530;9.200;2023-10-13T02:07:04;12.50;;;5.17;;
417;SDS011;49;48.530;9.200;2023-10-13T02:09:38;8.40;;;4.93;;
417;SDS011;49;48.530;9.200;2023-10-13T02:12:09;10.40;;;5.30;;
417;SDS011;49;48.530;9.200;2023-10-13T02:14:36;10.30;;;4.90;;
417;SDS011;49;48.530;9.200;2023-10-13T02:17:07;8.07;;;4.93;;
417;SDS011;49;48.530;9.200;2023-10-13T02:19:41;8.80;;;4.23;;
417;SDS011;49;48.530;9.200;2023-10-13T02:22:16;9.13;;;5.00;;
417;SDS011;49;48.530;9.200;2023-10-13T02:24:52;11.40;;;4.80;;
417;SDS011;49;48.530;9.200;2023-10-13T02:27:28;8.30;;;5.27;;
417;SDS011;49;48.530;9.200;2023-10-13T02:30:06;8.70;;;5.20;;
417;SDS011;49;48.530;9.200;2023-10-13T02:32:43;9.10;;;5.00;;
417;SDS011;49;48.530;9.200;2023-10-13T02:35:09;15.87;;;6.30;;
417;SDS011;49;48.530;9.200;2023-10-13T02:37:41;8.07;;;4.77;;
417;SDS011;49;48.530;9.200;2023-10-13T02:40:21;11.30;;;5.47;;
417;SDS011;49;48.530;9.200;2023-10-13T02:42:49;8.23;;;4.63;;
417;SDS011;49;48.530;9.200;2023-10-13T02:45:26;9.37;;;4.73;;
417;SDS011;49;48.530;9.200;2023-10-13T02:47:55;15.50;;;4.57;;
417;SDS011;49;48.530;9.200;2023-10-13T02:50:39;9.33;;;4.60;;
417;SDS011;49;48.530;9.200;2023-10-13T02:53:11;10.07;;;4.60;;
417;SDS011;49;48.530;9.200;2023-10-13T02:55:50;8.73;;;4.50;;
417;SDS011;49;48.530;9.200;2023-10-13T02:58:21;11.70;;;5.40;;
417;SDS011;49;48.530;9.200;2023-10-13T03:00:48;10.67;;;5.23;;
417;SDS011;49;48.530;9.200;2023-10-13T03:03:16;9.47;;;5.07;;
417;SDS011;49;48.530;9.200;2023-10-13T03:05:44;13.03;;;5.43;;
417;SDS011;49;48.530;9.200;2023-10-13T03:08:13;17.73;;;6.30;;
417;SDS011;49;48.530;9.200;2023-10-13T03:11:00;12.37;;;5.40;;
417;SDS011;49;48.530;9.200;2023-10-13T03:13:39;12.07;;;5.60;;
417;SDS011;49;48.530;9.200;2023-10-13T03:16:13;16.63;;;5.80;;
417;SDS011;49;48.530;9.200;2023-10-13T03:18:54;8.13;;;5.40;;
417;SDS011;49;48.530;9.200;2023-10-13T03:21:22;16.53;;;6.17;;
417;SDS011;49;48.530;9.200;2023-10-13T03:24:10;10.43;;;5.87;;
417;SDS011;49;48.530;9.200;2023-10-13T03:26:42;8.30;;;5.10;;
417;SDS011;49;48.530;9.200;2023-10-13T03:29:17;14.93;;;5.40;;
417;SDS011;49;48.530;9.200;2023-10-13T03:31:49;9.60;;;5.93;;
417;SDS011;49;48.530;9.200;2023-10-13T03:34:32;15.20;;;5.53;;
417;SDS011;49;48.530;9.200;2023-10-13T03:37:06;13.50;;;5.80;;
417;SDS011;49;48.530;9.200;2023-10-13T03:39:43;11.80;;;5.90;;
417;SDS011;49;48.530;9.200;2023-10-13T03:42:20;15.30;;;6.40;;
417;SDS011;49;48.530;9.200;2023-10-13T03:44:57;15.27;;;6.73;;
417;SDS011;49;48.530;9.200;2023-10-13T03:47:29;13.10;;;5.20;;
417;SDS011;49;48.530;9.200;2023-10-13T03:50:03;15.73;;;5.53;;
417;SDS011;49;48.530;9.200;2023-10-13T03:52:54;20.23;;;6.27;;
417;SDS011;49;48.530;9.200;2023-10-13T03:55:31;12.10;;;6.07;;
417;SDS011;49;48.530;9.200;2023-10-13T03:58:02;14.30;;;5.90;;
417;SDS011;49;48.530;9.200;2023-10-13T04:00:40;16.87;;;6.50;;
417;SDS011;49;48.530;9.200;2023-10-13T04:03:16;14.07;;;6.07;;
417;SDS011;49;48.530;9.200;2023-10-13T04:05:47;9.33;;;5.47;;
417;SDS011;49;48.530;9.200;2023-10-13T04:08:31;12.20;;;5.80;;
417;SDS011;49;48.530;9.200;2023-10-13T04:11:36;14.13;;;6.40;;
417;SDS011;49;48.530;9.200;2023-10-13T04:14:41;17.70;;;6.50;;
417;SDS011;49;48.530;9.200;2023-10-13T04:17:31;18.57;;;6.47;;
417;SDS011;49;48.530;9.200;2023-10-13T04:20:12;11.50;;;5.90;;
417;SDS011;49;48.530;9.200;2023-10-13T04:23:03;13.47;;;6.57;;
417;SDS011;49;48.530;9.200;2023-10-13T04:25:44;9.93;;;5.87;;
417;SDS011;49;48.530;9.200;2023-10-13T04:28:34;11.10;;;5.20;;
417;SDS011;49;48.530;9.200;2023-10-13T04:31:17;11.37;;;6.57;;
417;SDS011;49;48.530;9.200;2023-10-13T04:34:05;11.77;;;6.17;;
417;SDS011;49;48.530;9.200;2023-10-13T04:36:42;14.67;;;6.77;;
417;SDS011;49;48.530;9.200;2023-10-13T04:39:20;18.07;;;6.93;;
417;SDS011;49;48.530;9.200;2023-10-13T04:42:07;11.67;;;6.67;;
417;SDS011;49;48.530;9.200;2023-10-13T04:45:18;11.53;;;5.53;;
417;SDS011;49;48.530;9.200;2023-10-13T04:48:07;12.60;;;6.10;;
417;SDS011;49;48.530;9.200;2023-10-13T04:50:58;12.00;;;6.70;;
417;SDS011;49;48.530;9.200;2023-10-13T04:53:40;13.43;;;6.30;;
417;SDS011;49;48.530;9.200;2023-10-13T04:56:36;15.43;;;6.93;;
417;SDS011;49;48.530;9.200;2023-10-13T04:59:32;11.00;;;6.30;;
417;SDS011;49;48.530;9.200;2023-10-13T05:02:24;11.10;;;5.80;;
417;SDS011;49;48.530;9.200;2023-10-13T05:05:33;10.03;;;5.87;;
417;SDS011;49;48.530;9.200;2023-10-13T05:08:32;11.43;;;5.90;;
417;SDS011;49;48.530;9.200;2023-10-13T05:11:16;10.70;;;5.60;;
417;SDS011;49;48.530;9.200;2023-10-13T05:14:08;16.33;;;6.90;;
417;SDS011;49;48.530;9.200;2023-10-13T05:16:53;14.50;;;7.20;;
417;SDS011;49;48.530;9.200;2023-10-13T05:19:37;18.43;;;7.23;;
417;SDS011;49;48.530;9.200;2023-10-13T05:22:24;16.47;;;6.23;;
417;SDS011;49;48.530;9.200;2023-10-13T05:25:08;10.00;;;6.20;;
417;SDS011;49;48.530;9.200;2023-10-13T05:27:52;17.50;;;7.67;;
417;SDS011;49;48.530;9.200;2023-10-13T05:30:36;11.47;;;6.83;;
417;SDS011;49;48.530;9.200;2023-10-13T05:33:20;12.43;;;6.80;;
417;SDS011;49;48.530;9.200;2023-10-13T05:36:08;23.17;;;6.70;;
417;SDS011;49;48.530;9.200;2023-10-13T05:38:56;18.33;;;6.80;;
417;SDS011;49;48.530;9.200;2023-10-13T05:41:45;19.10;;;6.20;;
417;SDS011;49;48.530;9.200;2023-10-13T05:44:29;10.40;;;6.67;;
417;SDS011;49;48.530;9.200;2023-10-13T05:47:03;17.43;;;7.10;;
417;SDS011;49;48.530;9.200;2023-10-13T05:50:08;16.10;;;7.60;;
417;SDS011;49;48.530;9.200;2023-10-13T05:52:54;16.53;;;7.97;;
417;SDS011;49;48.530;9.200;2023-10-13T05:55:40;13.57;;;7.87;;
417;SDS011;49;48.530;9.200;2023-10-13T05:58:29;14.90;;;6.90;;
417;SDS011;49;48.530;9.200;2023-10-13T06:01:14;14.23;;;7.17;;
417;SDS011;49;48.530;9.200;2023-10-13T06:04:01;24.33;;;7.30;;
417;SDS011;49;48.530;9.200;2023-10-13T06:06:46;23.70;;;7.77;;
417;SDS011;49;48.530;9.200;2023-10-13T06:09:29;13.23;;;8.30;;
417;SDS011;49;48.530;9.200;2023-10-13T06:12:15;20.27;;;7.27;;
417;SDS011;49;48.530;9.200;2023-10-13T06:14:59;17.80;;;7.43;;
417;SDS011;49;48.530;9.200;2023-10-13T06:17:44;18.50;;;7.07;;
417;SDS011;49;48.530;9.200;2023-10-13T06:20:41;20.33;;;7.50;;
417;SDS011;49;48.530;9.200;2023-10-13T06:23:26;17.00;;;6.47;;
417;SDS011;49;48.530;9.200;2023-10-13T06:26:07;17.57;;;6.20;;
417;SDS011;49;48.530;9.200;2023-10-13T06:28:54;14.50;;;6.07;;
417;SDS011;49;48.530;9.200;2023-10-13T06:31:21;25.10;;;6.70;;
417;SDS011;49;48.530;9.200;2023-10-13T06:33:48;55.17;;;22.87;;
417;SDS011;49;48.530;9.200;2023-10-13T06:36:15;52.40;;;21.30;;
417;SDS011;49;48.530;9.200;2023-10-13T06:38:42;51.33;;;19.00;;
417;SDS011;49;48.530;9.200;2023-10-13T06:41:10;36.30;;;15.27;;
417;SDS011;49;48.530;9.200;2023-10-13T06:43:44;30.40;;;12.10;;
417;SDS011;49;48.530;9.200;2023-10-13T06:46:25;40.27;;;9.60;;
417;SDS011;49;48.530;9.200;2023-10-13T06:48:53;19.93;;;7.53;;
417;SDS011;49;48.530;9.200;2023-10-13T06:51:24;17.77;;;7.00;;
417;SDS011;49;48.530;9.200;2023-10-13T06:53:56;13.80;;;7.20;;
417;SDS011;49;48.530;9.200;2023-10-13T06:56:23;17.60;;;7.70;;
417;SDS011;49;48.530;9.200;2023-10-13T06:58:54;15.40;;;6.37;;
417;SDS011;49;48.530;9.200;2023-10-13T07:01:26;22.53;;;7.40;;
417;SDS011;49;48.530;9.200;2023-10-13T07:03:53;20.30;;;7.77;;
417;SDS011;49;48.530;9.200;2023-10-13T07:06:26;13.70;;;6.87;;
417;SDS011;49;48.530;9.200;2023-10-13T07:08:53;12.87;;;6.27;;
417;SDS011;49;48.530;9.200;2023-10-13T07:11:23;16.80;;;6.90;;
417;SDS011;49;48.530;9.200;2023-10-13T07:13:59;23.83;;;7.77;;
417;SDS011;49;48.530;9.200;2023-10-13T07:16:39;17.40;;;5.30;;
417;SDS011;49;48.530;9.200;2023-10-13T07:19:11;15.90;;;6.67;;
417;SDS011;49;48.530;9.200;2023-10-13T07:21:42;15.60;;;6.13;;
417;SDS011;49;48.530;9.200;2023-10-13T07:24:11;19.80;;;6.40;;
417;SDS011;49;48.530;9.200;2023-10-13T07:26:38;24.23;;;6.50;;
417;SDS011;49;48.530;9.200;2023-10-13T07:29:11;23.10;;;6.47;;
417;SDS011;49;48.530;9.200;2023-10-13T07:31:39;24.47;;;6.60;;
417;SDS011;49;48.530;9.200;2023-10-13T07:34:09;22.70;;;9.10;;
417;SDS011;49;48.530;9.200;2023-10-13T07:36:51;19.43;;;6.50;;
417;SDS011;49;48.530;9.200;2023-10-13T07:39:24;18.80;;;7.83;;
417;SDS011;49;48.530;9.200;2023-10-13T07:41:51;18.13;;;7.40;;
417;SDS011;49;48.530;9.200;2023-10-13T07:44:28;20.13;;;5.90;;
417;SDS011;49;48.530;9.200;2023-10-13T07:46:59;19.90;;;6.27;;
417;SDS011;49;48.530;9.200;2023-10-13T07:49:29;26.67;;;6.27;;
417;SDS011;49;48.530;9.200;2023-10-13T07:51:58;17.40;;;6.03;;
417;SDS011;49;48.530;9.200;2023-10-13T07:54:41;16.83;;;5.70;;
417;SDS011;49;48.530;9.200;2023-10-13T07:57:09;20.87;;;5.93;;
417;SDS011;49;48.530;9.200;2023-10-13T07:59:39;12.60;;;5.23;;
417;SDS011;49;48.530;9.200;2023-10-13T08:02:14;11.40;;;5.53;;
417;SDS011;49;48.530;9.200;2023-10-13T08:05:01;18.13;;;5.80;;
417;SDS011;49;48.530;9.200;2023-10-13T08:07:29;15.13;;;5.70;;
417;SDS011;49;48.530;9.200;2023-10-13T08:09:56;19.43;;;5.80;;
417;SDS011;49;48.530;9.200;2023-10-13T08:12:24;16.87;;;5.70;;
417;SDS011;49;48.530;9.200;2023-10-13T08:14:52;12.47;;;5.87;;
417;SDS011;49;48.530;9.200;2023-10-13T08:17:38;28.07;;;6.00;;
417;SDS011;49;48.530;9.200;2023-10-13T08:20:09;16.37;;;5.70;;
417;SDS011;49;48.530;9.200;2023-10-13T08:22:38;14.00;;;5.63;;
417;SDS011;49;48.530;9.200;2023-10-13T08:25:12;13.53;;;6.23;;
417;SDS011;49;48.530;9.200;2023-10-13T08:27:46;16.13;;;6.93;;
417;SDS011;49;48.530;9.200;2023-10-13T08:30:30;23.10;;;6.47;;
417;SDS011;49;48.530;9.200;2023-10-13T08:33:08;12.03;;;5.67;;
417;SDS011;49;48.530;9.200;2023-10-13T08:35:44;14.67;;;5.13;;
417;SDS011;49;48.530;9.200;2023-10-13T08:38:40;13.57;;;5.90;;
417;SDS011;49;48.530;9.200;2023-10-13T08:41:16;19.43;;;5.83;;
417;SDS011;49;48.530;9.200;2023-10-13T08:43:54;18.60;;;6.60;;
417;SDS011;49;48.530;9.200;2023-10-13T08:46:29;23.80;;;6.07;;
417;SDS011;49;48.530;9.200;2023-10-13T08:49:18;22.07;;;6.10;;
417;SDS011;49;48.530;9.200;2023-10-13T08:51:48;20.00;;;6.17;;
417;SDS011;49;48.530;9.200;2023-10-13T08:54:30;13.57;;;5.80;;
417;SDS011;49;48.530;9.200;2023-10-13T08:57:04;15.03;;;6.60;;
417;SDS011;49;48.530;9.200;2023-10-13T08:59:55;21.50;;;5.83;;
417;SDS011;49;48.530;9.200;2023-10-13T09:02:42;21.87;;;6.53;;
417;SDS011;49;48.530;9.200;2023-10-13T09:05:42;15.67;;;5.50;;
417;SDS011;49;48.530;9.200;2023-10-13T09:08:25;15.47;;;6.07;;
417;SDS011;49;48.530;9.200;2023-10-13T09:11:01;21.50;;;5.97;;
417;SDS011;49;48.530;9.200;2023-10-13T09:13:36;21.60;;;6.03;;
417;SDS011;49;48.530;9.200;2023-10-13T09:16:09;11.27;;;5.20;;
417;SDS011;49;48.530;9.200;2023-10-13T09:18:42;14.30;;;6.40;;
417;SDS011;49;48.530;9.200;2023-10-13T09:21:12;16.23;;;5.90;;
417;SDS011;49;48.530;9.200;2023-10-13T09:23:59;10.87;;;5.40;;
417;SDS011;49;48.530;9.200;2023-10-13T09:26:52;14.23;;;5.50;;
417;SDS011;49;48.530;9.200;2023-10-13T09:29:20;12.87;;;6.23;;
417;SDS011;49;48.530;9.200;2023-10-13T09:31:58;25.90;;;6.00;;
417;SDS011;49;48.530;9.200;2023-10-13T09:34:25;26.93;;;5.50;;
417;SDS011;49;48.530;9.200;2023-10-13T09:36:58;23.50;;;5.97;;
417;SDS011;49;48.530;9.200;2023-10-13T09:39:28;26.93;;;5.80;;
417;SDS011;49;48.530;9.200;2023-10-13T09:42:09;17.30;;;6.57;;
417;SDS011;49;48.530;9.200;2023-10-13T09:44:35;14.60;;;5.60;;
417;SDS011;49;48.530;9.200;2023-10-13T09:47:05;18.60;;;5.40;;
417;SDS011;49;48.530;9.200;2023-10-13T09:49:43;24.97;;;5.87;;
417;SDS011;49;48.530;9.200;2023-10-13T09:52:18;11.37;;;4.90;;
417;SDS011;49;48.530;9.200;2023-10-13T09:54:47;13.60;;;5.23;;
417;SDS011;49;48.530;9.200;2023-10-13T09:57:25;14.33;;;5.47;;
417;SDS011;49;48.530;9.200;2023-10-13T10:00:00;15.13;;;5.97;;
417;SDS011;49;48.530;9.200;2023-10-13T10:02:40;29.10;;;5.87;;
417;SDS011;49;48.530;9.200;2023-10-13T10:05:09;18.13;;;5.90;;
417;SDS011;49;48.530;9.200;2023-10-13T10:07:55;22.80;;;6.23;;
417;SDS011;49;48.530;9.200;2023-10-13T10:10:22;21.40;;;4.87;;
417;SDS011;49;48.530;9.200;2023-10-13T10:12:53;20.40;;;4.70;;
417;SDS011;49;48.530;9.200;2023-10-13T10:15:28;24.07;;;4.70;;
417;SDS011;49;48.530;9.200;2023-10-13T10:17:59;22.07;;;5.13;;
417;SDS011;49;48.530;9.200;2023-10-13T10:20:29;15.40;;;4.50;;
417;SDS011;49;48.530;9.200;2023-10-13T10:23:06;14.90;;;4.50;;
417;SDS011;49;48.530;9.200;2023-10-13T10:25:46;9.60;;;4.30;;
417;SDS011;49;48.530;9.200;2023-10-13T10:28:16;27.07;;;4.80;;
417;SDS011;49;48.530;9.200;2023-10-13T10:30:45;21.33;;;4.97;;
417;SDS011;49;48.530;9.200;2023-10-13T10:33:12;13.90;;;4.50;;
417;SDS011;49;48.530;9.200;2023-10-13T10:35:40;19.63;;;5.03;;
417;SDS011;49;48.530;9.200;2023-10-13T10:38:11;20.20;;;4.33;;
417;SDS011;49;48.530;9.200;2023-10-13T10:40:50;22.40;;;5.00;;
417;SDS011;49;48.530;9.200;2023-10-13T10:43:22;11.87;;;4.50;;
417;SDS011;49;48.530;9.200;2023-10-13T10:45:53;11.77;;;3.80;;
417;SDS011;49;48.530;9.200;2023-10-13T10:48:25;11.93;;;4.73;;
417;SDS011;49;48.530;9.200;2023-10-13T10:50:56;14.97;;;3.97;;
417;SDS011;49;48.530;9.200;2023-10-13T10:53:25;20.10;;;5.17;;
417;SDS011;49;48.530;9.200;2023-10-13T10:56:04;7.80;;;3.77;;
417;SDS011;49;48.530;9.200;2023-10-13T10:58:33;18.17;;;4.47;;
417;SDS011;49;48.530;9.200;2023-10-13T11:01:09;17.83;;;4.97;;
417;SDS011;49;48.530;9.200;2023-10-13T11:03:37;16.77;;;4.17;;
417;SDS011;49;48.530;9.200;2023-10-13T11:06:07;17.57;;;4.17;;
417;SDS011;49;48.530;9.200;2023-10-13T11:08:43;15.63;;;4.47;;
417;SDS011;49;48.530;9.200;2023-10-13T11:11:16;23.03;;;4.63;;
417;SDS011;49;48.530;9.200;2023-10-13T11:13:55;23.93;;;4.50;;
417;SDS011;49;48.530;9.200;2023-10-13T11:16:44;24.23;;;5.13;;
417;SDS011;49;48.530;9.200;2023-10-13T11:19:15;15.20;;;4.97;;
417;SDS011;49;48.530;9.200;2023-10-13T11:21:45;11.17;;;4.20;;
417;SDS011;49;48.530;9.200;2023-10-13T11:24:14;19.13;;;5.00;;
417;SDS011;49;48.530;9.200;2023-10-13T11:26:42;20.13;;;4.30;;
417;SDS011;49;48.530;9.200;2023-10-13T11:29:16;13.10;;;4.70;;
417;SDS011;49;48.530;9.200;2023-10-13T11:31:46;15.20;;;4.17;;
417;SDS011;49;48.530;9.200;2023-10-13T11:34:19;17.20;;;4.37;;
417;SDS011;49;48.530;9.200;2023-10-13T11:36:46;13.60;;;4.83;;
417;SDS011;49;48.530;9.200;2023-10-13T11:39:16;17.20;;;4.00;;
417;SDS011;49;48.530;9.200;2023-10-13T11:41:47;16.50;;;3.87;;
417;SDS011;49;48.530;9.200;2023-10-13T11:44:19;12.30;;;4.70;;
417;SDS011;49;48.530;9.200;2023-10-13T11:46:57;22.27;;;4.50;;
417;SDS011;49;48.530;9.200;2023-10-13T11:49:42;14.93;;;4.80;;
417;SDS011;49;48.530;9.200;2023-10-13T11:52:09;12.70;;;3.90;;
417;SDS011;49;48.530;9.200;2023-10-13T11:54:51;8.60;;;3.97;;
417;SDS011;49;48.530;9.200;2023-10-13T11:57:19;19.23;;;4.83;;
417;SDS011;49;48.530;9.200;2023-10-13T11:59:47;17.47;;;4.10;;
417;SDS011;49;48.530;9.200;2023-10-13T12:02:41;17.13;;;5.50;;
417;SDS011;49;48.530;9.200;2023-10-13T12:05:26;8.13;;;3.70;;
417;SDS011;49;48.530;9.200;2023-10-13T12:08:14;10.13;;;4.27;;
417;SDS011;49;48.530;9.200;2023-10-13T12:11:03;14.13;;;3.70;;
417;SDS011;49;48.530;9.200;2023-10-13T12:13:49;16.60;;;5.00;;
417;SDS011;49;48.530;9.200;2023-10-13T12:16:16;12.93;;;4.60;;
417;SDS011;49;48.530;9.200;2023-10-13T12:18:44;10.13;;;4.37;;
417;SDS011;49;48.530;9.200;2023-10-13T12:21:18;7.20;;;3.70;;
417;SDS011;49;48.530;9.200;2023-10-13T12:23:46;11.43;;;3.97;;
417;SDS011;49;48.530;9.200;2023-10-13T12:26:17;24.47;;;5.00;;
417;SDS011;49;48.530;9.200;2023-10-13T12:28:57;9.50;;;4.17;;
417;SDS011;49;48.530;9.200;2023-10-13T12:31:31;15.00;;;4.63;;
417;SDS011;49;48.530;9.200;2023-10-13T12:34:04;17.70;;;4.00;;
417;SDS011;49;48.530;9.200;2023-10-13T12:39:08;20.50;;;4.30;;
417;SDS011;49;48.530;9.200;2023-10-13T12:41:54;15.60;;;4.10;;
417;SDS011;49;48.530;9.200;2023-10-13T12:44:38;22.03;;;5.00;;
417;SDS011;49;48.530;9.200;2023-10-13T12:47:22;22.50;;;5.37;;
417;SDS011;49;48.530;9.200;2023-10-13T12:50:06;9.87;;;4.10;;
417;SDS011;49;48.530;9.200;2023-10-13T12:52:39;19.10;;;4.00;;
417;SDS011;49;48.530;9.200;2023-10-13T12:55:10;9.80;;;4.53;;
417;SDS011;49;48.530;9.200;2023-10-13T12:57:40;12.90;;;4.33;;
417;SDS011;49;48.530;9.200;2023-10-13T13:00:10;27.50;;;4.70;;
417;SDS011;49;48.530;9.200;2023-10-13T13:02:49;29.77;;;4.20;;
417;SDS011;49;48.530;9.200;2023-10-13T13:05:17;19.00;;;4.40;;
417;SDS011;49;48.530;9.200;2023-10-13T13:07:48;10.97;;;4.57;;
417;SDS011;49;48.530;9.200;2023-10-13T13:10:19;16.53;;;4.40;;
417;SDS011;49;48.530;9.200;2023-10-13T13:12:56;12.40;;;4.73;;
417;SDS011;49;48.530;9.200;2023-10-13T13:15:24;14.60;;;4.50;;
417;SDS011;49;48.530;9.200;2023-10-13T13:17:51;9.13;;;4.27;;
417;SDS011;49;48.530;9.200;2023-10-13T13:20:18;15.87;;;4.30;;
417;SDS011;49;48.530;9.200;2023-10-13T13:22:53;10.23;;;4.00;;
417;SDS011;49;48.530;9.200;2023-10-13T13:25:20;23.60;;;4.87;;
417;SDS011;49;48.530;9.200;2023-10-13T13:27:56;20.67;;;4.57;;
417;SDS011;49;48.530;9.200;2023-10-13T13:30:29;22.00;;;4.37;;
417;SDS011;49;48.530;9.200;2023-10-13T13:32:59;13.63;;;4.47;;
417;SDS011;49;48.530;9.200;2023-10-13T13:35:29;9.87;;;4.40;;
417;SDS011;49;48.530;9.200;2023-10-13T13:37:59;11.07;;;4.50;;
417;SDS011;49;48.530;9.200;2023-10-13T13:40:35;17.50;;;4.67;;
417;SDS011;49;48.530;9.200;2023-10-13T13:43:06;19.23;;;4.67;;
417;SDS011;49;48.530;9.200;2023-10-13T13:45:33;30.43;;;4.40;;
417;SDS011;49;48.530;9.200;2023-10-13T13:48:00;11.43;;;4.10;;
417;SDS011;49;48.530;9.200;2023-10-13T13:50:32;14.30;;;4.60;;
417;SDS011;49;48.530;9.200;2023-10-13T13:53:06;15.20;;;4.60;;
417;SDS011;49;48.530;9.200;2023-10-13T13:55:35;11.97;;;5.00;;
417;SDS011;49;48.530;9.200;2023-10-13T13:58:05;25.80;;;4.50;;
417;SDS011;49;48.530;9.200;2023-10-13T14:00:34;21.97;;;5.00;;
417;SDS011;49;48.530;9.200;2023-10-13T14:03:03;24.47;;;3.90;;
417;SDS011;49;48.530;9.200;2023-10-13T14:05:39;14.53;;;3.90;;
417;SDS011;49;48.530;9.200;2023-10-13T14:08:07;17.33;;;4.20;;
417;SDS011;49;48.530;9.200;2023-10-13T14:10:36;19.63;;;3.60;;
417;SDS011;49;48.530;9.200;2023-10-13T14:13:38;14.23;;;4.23;;
417;SDS011;49;48.530;9.200;2023-10-13T14:16:14;13.43;;;3.70;;
417;SDS011;49;48.530;9.200;2023-10-13T14:18:45;17.10;;;4.00;;
417;SDS011;49;48.530;9.200;2023-10-13T14:21:14;12.80;;;4.10;;
417;SDS011;49;48.530;9.200;2023-10-13T14:23:43;30.40;;;5.10;;
417;SDS011;49;48.530;9.200;2023-10-13T14:26:12;19.13;;;3.80;;
417;SDS011;49;48.530;9.200;2023-10-13T14:28:40;16.03;;;4.00;;
417;SDS011;49;48.530;9.200;2023-10-13T14:31:17;7.97;;;3.80;;
417;SDS011;49;48.530;9.200;2023-10-13T14:33:45;10.47;;;3.90;;
417;SDS011;49;48.530;9.200;2023-10-13T14:36:12;14.13;;;3.90;;
417;SDS011;49;48.530;9.200;2023-10-13T14:38:44;11.17;;;4.30;;
417;SDS011;49;48.530;9.200;2023-10-13T14:41:14;18.57;;;4.07;;
417;SDS011;49;48.530;9.200;2023-10-13T14:43:44;13.23;;;4.37;;
417;SDS011;49;48.530;9.200;2023-10-13T14:46:14;10.13;;;3.60;;
417;SDS011;49;48.530;9.200;2023-10-13T14:48:41;10.00;;;3.30;;
417;SDS011;49;48.530;9.200;2023-10-13T14:51:09;13.90;;;3.80;;
417;SDS011;49;48.530;9.200;2023-10-13T14:53:38;6.90;;;3.30;;
417;SDS011;49;48.530;9.200;2023-10-13T14:56:09;13.43;;;3.67;;
417;SDS011;49;48.530;9.200;2023-10-13T14:58:36;8.33;;;3.57;;
417;SDS011;49;48.530;9.200;2023-10-13T15:01:11;9.40;;;4.03;;
417;SDS011;49;48.530;9.200;2023-10-13T15:03:40;4.30;;;3.17;;
417;SDS011;49;48.530;9.200;2023-10-13T15:06:08;11.90;;;3.80;;
417;SDS011;49;48.530;9.200;2023-10-13T15:08:42;10.07;;;4.10;;
417;SDS011;49;48.530;9.200;2023-10-13T15:11:11;14.30;;;3.23;;
417;SDS011;49;48.530;9.200;2023-10-13T15:13:38;9.83;;;3.53;;
417;SDS011;49;48.530;9.200;2023-10-13T15:16:13;10.67;;;3.87;;
417;SDS011;49;48.530;9.200;2023-10-13T15:18:42;7.40;;;3.30;;
417;SDS011;49;48.530;9.200;2023-10-13T15:21:10;22.43;;;3.97;;
417;SDS011;49;48.530;9.200;2023-10-13T15:23:38;13.63;;;3.87;;
417;SDS011;49;48.530;9.200;2023-10-13T15:26:08;27.03;;;3.80;;
417;SDS011;49;48.530;9.200;2023-10-13T15:28:36;20.17;;;3.70;;
417;SDS011;49;48.530;9.200;2023-10-13T15:31:10;16.30;;;3.73;;
417;SDS011;49;48.530;9.200;2023-10-13T15:33:50;31.87;;;4.80;;
417;SDS011;49;48.530;9.200;2023-10-13T15:36:20;13.13;;;4.40;;
417;SDS011;49;48.530;9.200;2023-10-13T15:38:48;17.60;;;5.50;;
417;SDS011;49;48.530;9.200;2023-10-13T15:41:20;40.63;;;4.20;;
417;SDS011;49;48.530;9.200;2023-10-13T15:43:48;54.17;;;5.00;;
417;SDS011;49;48.530;9.200;2023-10-13T15:46:16;53.43;;;4.57;;
417;SDS011;49;48.530;9.200;2023-10-13T15:48:46;38.87;;;5.07;;
417;SDS011;49;48.530;9.200;2023-10-13T15:51:14;24.47;;;4.50;;
417;SDS011;49;48.530;9.200;2023-10-13T15:53:42;13.33;;;3.80;;
417;SDS011;49;48.530;9.200;2023-10-13T15:56:10;12.93;;;4.23;;
417;SDS011;49;48.530;9.200;2023-10-13T15:58:39;8.90;;;3.80;;
417;SDS011;49;48.530;9.200;2023-10-13T16:01:08;13.60;;;3.90;;
417;SDS011;49;48.530;9.200;2023-10-13T16:03:37;9.73;;;3.87;;
417;SDS011;49;48.530;9.200;2023-10-13T16:06:04;19.03;;;5.40;;
417;SDS011;49;48.530;9.200;2023-10-13T16:08:36;14.67;;;4.23;;
417;SDS011;49;48.530;9.200;2023-10-13T16:11:04;18.47;;;4.27;;
417;SDS011;49;48.530;9.200;2023-10-13T16:13:32;19.07;;;4.53;;
417;SDS011;49;48.530;9.200;2023-10-13T16:16:01;9.30;;;4.13;;
417;SDS011;49;48.530;9.200;2023-10-13T16:18:28;12.13;;;5.47;;
417;SDS011;49;48.530;9.200;2023-10-13T16:20:57;15.13;;;4.93;;
417;SDS011;49;48.530;9.200;2023-10-13T16:23:25;29.37;;;6.10;;
417;SDS011;49;48.530;9.200;2023-10-13T16:25:54;25.57;;;4.87;;
417;SDS011;49;48.530;9.200;2023-10-13T16:28:24;10.53;;;4.40;;
417;SDS011;49;48.530;9.200;2023-10-13T16:30:50;11.30;;;4.80;;
417;SDS011;49;48.530;9.200;2023-10-13T16:33:19;20.47;;;5.33;;
417;SDS011;49;48.530;9.200;2023-10-13T16:35:46;14.50;;;5.27;;
417;SDS011;49;48.530;9.200;2023-10-13T16:38:14;11.80;;;5.20;;
417;SDS011;49;48.530;9.200;2023-10-13T16:40:42;14.97;;;5.53;;